createdAt,value
2022-12-22T00:00:03.718Z,100071.34
2022-12-22T00:02:56.176Z,100068.56
2022-12-22T00:05:47.426Z,100071.44
2022-12-22T00:08:38.380Z,100072.41
2022-12-22T00:11:30.167Z,100071.44
2022-12-22T00:14:21.014Z,100055.53
2022-12-22T00:17:11.910Z,100054.63
2022-12-22T00:20:04.249Z,100047.38
2022-12-22T00:22:55.080Z,100041.38
2022-12-22T00:25:46.207Z,100038.06
2022-12-22T00:28:37.047Z,100043.75
2022-12-22T00:31:28.062Z,100035.09
2022-12-22T00:34:19.164Z,100034.75
2022-12-22T00:37:11.371Z,100037.22
2022-12-22T00:40:02.214Z,100035.50
2022-12-22T00:42:53.623Z,100029.25
2022-12-22T00:45:44.691Z,100024.00
2022-12-22T00:48:39.924Z,100017.72
2022-12-22T00:51:31.275Z,100015.06
2022-12-22T00:54:27.187Z,100010.59
2022-12-22T00:57:18.413Z,100016.66
2022-12-22T01:00:09.863Z,100015.69
2022-12-22T01:03:00.872Z,100012.09
2022-12-22T01:05:52.082Z,100012.91
2022-12-22T01:08:42.989Z,100007.72
2022-12-22T01:11:35.468Z,100003.25
2022-12-22T01:14:27.938Z,99999.78
2022-12-22T01:17:19.039Z,100001.66
2022-12-22T01:20:09.857Z,99997.06
2022-12-22T01:23:01.048Z,99990.09
2022-12-22T01:25:51.720Z,99990.09
2022-12-22T01:28:44.199Z,99990.00
2022-12-22T01:31:36.747Z,99987.50
2022-12-22T01:34:27.572Z,99981.44
2022-12-22T01:37:18.362Z,99974.69
2022-12-22T01:40:09.107Z,99972.88
2022-12-22T01:42:59.826Z,99973.69
2022-12-22T01:45:54.045Z,99974.56
2022-12-22T01:48:45.776Z,99964.34
2022-12-22T01:51:39.173Z,99963.53
2022-12-22T01:54:31.652Z,99965.22
2022-12-22T01:57:22.461Z,99964.44
2022-12-22T02:00:13.326Z,99961.84
2022-12-22T02:03:05.476Z,99958.53
2022-12-22T02:06:00.262Z,99956.75
2022-12-22T02:08:56.561Z,99953.34
2022-12-22T02:11:54.180Z,99949.06
2022-12-22T02:14:48.990Z,99945.50
2022-12-22T02:17:43.357Z,99940.31
2022-12-22T02:20:48.302Z,99944.69
2022-12-22T02:23:58.006Z,99937.72
2022-12-22T02:26:52.706Z,99938.72
2022-12-22T02:29:44.684Z,99937.09
2022-12-22T02:32:35.587Z,99932.66
2022-12-22T02:35:29.524Z,99923.25
2022-12-22T02:38:25.403Z,99930.31
2022-12-22T02:41:21.732Z,99923.19
2022-12-22T02:44:23.960Z,99923.19
2022-12-22T02:47:19.046Z,99918.97
2022-12-22T02:50:11.963Z,99912.09
2022-12-22T02:53:03.572Z,99920.84
2022-12-22T02:55:54.385Z,99917.47
2022-12-22T02:58:46.290Z,99908.00
2022-12-22T03:01:38.590Z,99913.19
2022-12-22T03:04:29.751Z,99905.59
2022-12-22T03:07:20.684Z,99903.78
2022-12-22T03:10:11.409Z,99904.78
2022-12-22T03:13:02.389Z,99904.88
2022-12-22T03:15:53.160Z,99893.69
2022-12-22T03:18:45.781Z,99896.91
2022-12-22T03:21:36.590Z,99888.44
2022-12-22T03:24:27.980Z,99880.66
2022-12-22T03:27:01.470Z,99876.47
2022-12-22T03:29:35.065Z,99877.09
2022-12-22T03:32:08.364Z,99879.69
2022-12-22T03:34:43.309Z,99871.91
2022-12-22T03:37:16.667Z,99864.16
2022-12-22T03:39:50.265Z,99862.53
2022-12-22T03:42:41.368Z,99872.09
2022-12-22T03:45:32.192Z,99866.81
2022-12-22T03:48:05.721Z,99858.16
2022-12-22T03:50:40.716Z,99868.59
2022-12-22T03:53:14.118Z,99853.88
2022-12-22T03:55:47.616Z,99848.63
2022-12-22T03:58:21.036Z,99845.22
2022-12-22T04:00:54.683Z,99849.59
2022-12-22T04:03:28.821Z,99846.09
2022-12-22T04:06:03.913Z,99844.41
2022-12-22T04:08:37.285Z,99846.19
2022-12-22T04:11:32.316Z,99841.00
2022-12-22T04:14:05.725Z,99833.25
2022-12-22T04:16:39.480Z,99831.47
2022-12-22T04:19:12.949Z,99826.28
2022-12-22T04:21:47.853Z,99822.09
2022-12-22T04:24:22.289Z,99816.81
2022-12-22T04:26:55.848Z,99817.00
2022-12-22T04:29:29.204Z,99823.88
2022-12-22T04:32:02.840Z,99819.78
2022-12-22T04:34:36.267Z,99808.41
2022-12-22T04:37:17.122Z,99806.63
2022-12-22T04:39:51.171Z,99797.00
2022-12-22T04:42:24.974Z,99797.00
2022-12-22T04:44:58.350Z,99798.78
2022-12-22T04:47:31.910Z,99794.41
2022-12-22T04:50:05.958Z,99789.13
2022-12-22T04:52:41.159Z,99789.13
2022-12-22T04:55:15.026Z,99781.63
2022-12-22T04:57:48.572Z,99777.34
2022-12-22T05:00:22.008Z,99778.06
2022-12-22T05:02:55.686Z,99776.19
2022-12-22T05:05:29.315Z,99779.69
2022-12-22T05:08:04.318Z,99769.47
2022-12-22T05:10:37.725Z,99773.69
2022-12-22T05:13:11.296Z,99770.38
2022-12-22T05:15:44.732Z,99760.00
2022-12-22T05:18:18.239Z,99755.66
2022-12-22T05:20:51.745Z,99753.22
2022-12-22T05:23:26.652Z,99747.16
2022-12-22T05:26:00.147Z,99746.47
2022-12-22T05:28:34.017Z,99742.25
2022-12-22T05:31:08.501Z,99746.72
2022-12-22T05:33:42.174Z,99749.94
2022-12-22T05:36:15.719Z,99747.34
2022-12-22T05:38:50.629Z,99753.34
2022-12-22T05:41:23.941Z,99746.47
2022-12-22T05:43:57.479Z,99742.09
2022-12-22T05:46:31.046Z,99745.66
2022-12-22T05:49:04.673Z,99747.34
2022-12-22T05:51:38.038Z,99741.28
2022-12-22T05:54:13.072Z,99743.22
2022-12-22T05:56:46.520Z,99752.22
2022-12-22T05:59:20.012Z,99746.88
2022-12-22T06:01:53.406Z,99749.47
2022-12-22T06:04:27.106Z,99751.25
2022-12-22T06:07:00.549Z,99745.00
2022-12-22T06:09:35.471Z,99740.63
2022-12-22T06:12:09.049Z,99737.16
2022-12-22T06:14:42.557Z,99738.03
2022-12-22T06:17:15.987Z,99728.56
2022-12-22T06:19:49.562Z,99726.88
2022-12-22T06:22:23.111Z,99723.66
2022-12-22T06:24:58.127Z,99728.75
2022-12-22T06:27:31.701Z,99722.84
2022-12-22T06:30:05.860Z,99721.06
2022-12-22T06:32:39.736Z,99721.94
2022-12-22T06:35:13.838Z,99721.13
2022-12-22T06:37:47.315Z,99729.88
2022-12-22T06:40:22.373Z,99733.34
2022-12-22T06:43:10.532Z,99730.78
2022-12-22T06:45:45.394Z,99735.13
2022-12-22T06:48:19.066Z,99727.38
2022-12-22T06:50:52.798Z,99727.44
2022-12-22T06:53:26.188Z,99724.84
2022-12-22T06:56:01.077Z,99733.59
2022-12-22T06:58:34.512Z,99733.69
2022-12-22T07:01:07.986Z,99737.28
2022-12-22T07:03:41.403Z,99735.66
2022-12-22T07:06:15.103Z,99745.13
2022-12-22T07:08:48.886Z,99745.22
2022-12-22T07:11:23.808Z,99737.53
2022-12-22T07:13:57.250Z,99730.56
2022-12-22T07:16:30.929Z,99729.91
2022-12-22T07:19:04.479Z,99736.06
2022-12-22T07:21:38.049Z,99733.16
2022-12-22T07:24:11.637Z,99731.44
2022-12-22T07:26:46.599Z,99731.63
2022-12-22T07:29:20.012Z,99729.91
2022-12-22T07:31:53.676Z,99725.53
2022-12-22T07:34:27.027Z,99726.28
2022-12-22T07:37:00.567Z,99730.66
2022-12-22T07:39:33.976Z,99725.47
2022-12-22T07:42:26.240Z,99726.19
2022-12-22T07:44:59.561Z,99723.59
2022-12-22T07:47:35.558Z,99720.19
2022-12-22T07:50:28.034Z,99729.66
2022-12-22T07:53:02.522Z,99722.78
2022-12-22T07:55:37.069Z,99731.28
2022-12-22T07:58:11.967Z,99738.41
2022-12-22T08:00:45.816Z,99729.66
2022-12-22T08:03:19.471Z,99736.56
2022-12-22T08:05:52.913Z,99738.16
2022-12-22T08:08:26.474Z,99739.06
2022-12-22T08:11:02.675Z,99735.59
2022-12-22T08:13:37.959Z,99727.00
2022-12-22T08:16:12.725Z,99742.63
2022-12-22T08:18:46.344Z,99739.31
2022-12-22T08:21:19.644Z,99734.03
2022-12-22T08:23:53.269Z,99731.28
2022-12-22T08:26:29.388Z,99737.44
2022-12-22T08:29:07.367Z,99735.59
2022-12-22T08:31:41.844Z,99732.19
2022-12-22T08:34:16.500Z,99724.41
2022-12-22T08:36:51.609Z,99732.19
2022-12-22T08:39:26.735Z,99728.78
2022-12-22T08:42:00.968Z,99725.38
2022-12-22T08:44:38.943Z,99721.91
2022-12-22T08:47:16.889Z,99730.72
2022-12-22T08:49:51.295Z,99736.88
2022-12-22T08:52:24.671Z,99732.66
2022-12-22T08:54:58.210Z,99734.44
2022-12-22T08:57:31.533Z,99729.34
2022-12-22T09:00:08.556Z,99731.84
2022-12-22T09:02:42.159Z,99744.16
2022-12-22T09:05:15.815Z,99742.47
2022-12-22T09:07:49.232Z,99738.25
2022-12-22T09:10:22.751Z,99731.63
2022-12-22T09:12:56.192Z,99726.63
2022-12-22T09:15:31.073Z,99722.63
2022-12-22T09:18:04.453Z,99727.31
2022-12-22T09:20:37.999Z,99735.44
2022-12-22T09:23:11.402Z,99731.97
2022-12-22T09:25:44.951Z,99736.50
2022-12-22T09:28:18.283Z,99724.75
2022-12-22T09:30:53.851Z,99723.13
2022-12-22T09:33:27.332Z,99740.72
2022-12-22T09:36:00.913Z,99730.91
2022-12-22T09:38:34.258Z,99742.31
2022-12-22T09:41:08.948Z,99741.91
2022-12-22T09:43:42.444Z,99748.88
2022-12-22T09:46:21.018Z,99742.09
2022-12-22T09:48:55.087Z,99750.03
2022-12-22T09:51:30.076Z,99745.47
2022-12-22T09:54:03.555Z,99745.09
2022-12-22T09:56:37.130Z,99749.69
2022-12-22T09:59:12.007Z,99742.66
2022-12-22T10:01:57.081Z,99740.28
2022-12-22T10:04:37.238Z,99746.63
2022-12-22T10:07:17.788Z,99749.97
2022-12-22T10:09:52.111Z,99754.97
2022-12-22T10:12:26.686Z,99751.47
2022-12-22T10:15:00.105Z,99749.88
2022-12-22T10:17:35.813Z,99761.03
2022-12-22T10:20:20.175Z,99762.75
2022-12-22T10:22:54.485Z,99754.19
2022-12-22T10:25:39.794Z,99757.75
2022-12-22T10:28:24.928Z,99762.50
2022-12-22T10:31:15.651Z,99758.56
2022-12-22T10:33:51.559Z,99759.59
2022-12-22T10:36:26.382Z,99764.78
2022-12-22T10:39:02.839Z,99763.75
2022-12-22T10:41:37.564Z,99764.63
2022-12-22T10:44:19.185Z,99769.00
2022-12-22T10:46:53.366Z,99766.25
2022-12-22T10:49:30.042Z,99758.56
2022-12-22T10:52:11.485Z,99764.41
2022-12-22T10:54:46.278Z,99772.34
2022-12-22T10:57:26.935Z,99775.00
2022-12-22T11:00:01.453Z,99770.78
2022-12-22T11:02:37.669Z,99777.53
2022-12-22T11:05:13.392Z,99775.66
2022-12-22T11:07:47.943Z,99774.28
2022-12-22T11:10:28.322Z,99774.06
2022-12-22T11:13:15.281Z,99763.94
2022-12-22T11:15:51.850Z,99769.25
2022-12-22T11:18:34.392Z,99765.09
2022-12-22T11:21:22.044Z,99756.09
2022-12-22T11:24:02.692Z,99760.38
2022-12-22T11:26:44.730Z,99761.66
2022-12-22T11:29:32.727Z,99755.13
2022-12-22T11:32:21.545Z,99765.72
2022-12-22T11:34:59.495Z,99767.59
2022-12-22T11:37:43.074Z,99763.66
2022-12-22T11:40:21.987Z,99763.44
2022-12-22T11:43:03.432Z,99753.97
2022-12-22T11:45:50.237Z,99753.50
2022-12-22T11:48:44.415Z,99761.84
2022-12-22T11:51:28.319Z,99758.88
2022-12-22T11:54:13.186Z,99768.41
2022-12-22T11:56:48.663Z,99768.81
2022-12-22T11:59:29.901Z,99775.97
2022-12-22T12:02:20.775Z,99771.06
2022-12-22T12:05:09.662Z,99779.38
2022-12-22T12:07:46.575Z,99780.63
2022-12-22T12:10:24.621Z,99788.41
2022-12-22T12:13:01.085Z,99790.38
2022-12-22T12:15:38.303Z,99788.59
2022-12-22T12:18:26.093Z,99794.28
2022-12-22T12:21:04.693Z,99787.56
2022-12-22T12:23:48.251Z,99791.63
2022-12-22T12:26:25.558Z,99794.59
2022-12-22T12:29:07.283Z,99786.91
2022-12-22T12:31:43.640Z,99792.50
2022-12-22T12:34:17.858Z,99802.91
2022-12-22T12:36:54.597Z,99786.97
2022-12-22T12:39:32.370Z,99801.34
2022-12-22T12:42:12.398Z,99801.97
2022-12-22T12:44:46.873Z,99802.63
2022-12-22T12:47:25.655Z,99802.63
2022-12-22T12:50:03.075Z,99809.50
2022-12-22T12:52:55.515Z,99812.81
2022-12-22T12:55:33.352Z,99816.06
2022-12-22T12:58:11.347Z,99806.41
2022-12-22T13:00:52.497Z,99811.69
2022-12-22T13:04:02.368Z,99813.63
2022-12-22T13:06:51.253Z,99819.31
2022-12-22T13:12:34.220Z,99829.16
2022-12-22T13:15:22.660Z,99825.31
2022-12-22T13:17:57.728Z,99830.91
2022-12-22T13:20:32.949Z,99833.88
2022-12-22T13:23:12.177Z,99836.84
2022-12-22T13:25:49.579Z,99842.91
2022-12-22T13:28:24.404Z,99845.66
2022-12-22T13:31:00.484Z,99842.47
2022-12-22T13:33:38.060Z,99847.50
2022-12-22T13:36:17.304Z,99842.88
2022-12-22T13:39:04.927Z,99846.38
2022-12-22T13:41:40.469Z,99855.78
2022-12-22T13:44:16.554Z,99854.00
2022-12-22T13:46:50.179Z,99854.16
2022-12-22T13:49:58.672Z,99845.31
2022-12-22T13:52:21.326Z,99847.41
2022-12-22T13:54:54.992Z,99849.63
2022-12-22T13:57:28.614Z,99845.41
2022-12-22T14:00:02.786Z,99833.25
2022-12-22T14:02:36.546Z,99836.72
2022-12-22T14:05:12.243Z,99842.81
2022-12-22T14:07:58.450Z,99845.47
2022-12-22T14:10:36.623Z,99853.25
2022-12-22T14:13:13.666Z,99861.03
2022-12-22T14:15:47.497Z,99862.50
2022-12-22T14:18:25.595Z,99872.59
2022-12-22T14:21:00.428Z,99874.41
2022-12-22T14:23:36.024Z,99876.34
2022-12-22T14:26:13.786Z,99871.28
2022-12-22T14:28:50.528Z,99879.16
2022-12-22T14:31:23.922Z,99880.59
2022-12-22T14:34:05.041Z,99884.41
2022-12-22T14:36:45.780Z,99882.03
2022-12-22T14:39:22.780Z,99886.69
2022-12-22T14:41:57.499Z,99887.41
2022-12-22T14:44:32.933Z,99890.00
2022-12-22T14:47:09.117Z,99884.41
2022-12-22T14:49:50.259Z,99893.44
2022-12-22T14:52:27.536Z,99895.56
2022-12-22T14:55:01.474Z,99891.66
2022-12-22T14:57:37.506Z,99900.06
2022-12-22T15:00:28.760Z,99900.50
2022-12-22T15:03:04.481Z,99898.00
2022-12-22T15:05:39.049Z,99904.00
2022-12-22T15:08:27.528Z,99901.41
2022-12-22T15:11:03.396Z,99890.66
2022-12-22T15:13:37.228Z,99893.06
2022-12-22T15:16:13.782Z,99885.75
2022-12-22T15:18:47.911Z,99901.00
2022-12-22T15:21:23.074Z,99903.59
2022-12-22T15:23:56.519Z,99917.13
2022-12-22T15:26:37.546Z,99916.94
2022-12-22T15:29:11.317Z,99920.06
2022-12-22T15:31:45.039Z,99924.53
2022-12-22T15:34:23.180Z,99923.19
2022-12-22T15:36:56.879Z,99932.88
2022-12-22T15:39:30.257Z,99932.75
2022-12-22T15:42:05.587Z,99933.56
2022-12-22T15:44:39.536Z,99946.41
2022-12-22T15:47:13.643Z,99944.44
2022-12-22T15:49:47.067Z,99945.25
2022-12-22T15:52:20.612Z,99948.19
2022-12-22T15:54:54.828Z,99947.22
2022-12-22T15:57:29.758Z,99950.50
2022-12-22T16:00:03.340Z,99958.19
2022-12-22T16:02:37.240Z,99952.81
2022-12-22T16:05:11.271Z,99959.22
2022-12-22T16:07:45.410Z,99968.47
2022-12-22T16:10:21.825Z,99965.06
2022-12-22T16:13:00.393Z,99966.28
2022-12-22T16:15:35.113Z,99957.53
2022-12-22T16:18:11.255Z,99961.72
2022-12-22T16:20:45.347Z,99968.38
2022-12-22T16:23:21.044Z,99970.06
2022-12-22T16:26:00.935Z,99958.66
2022-12-22T16:28:36.453Z,99963.00
2022-12-22T16:31:16.671Z,99945.72
2022-12-22T16:33:50.613Z,99946.69
2022-12-22T16:36:24.075Z,99949.19
2022-12-22T16:38:57.537Z,99951.78
2022-12-22T16:41:31.098Z,99945.97
2022-12-22T16:44:08.278Z,99950.00
2022-12-22T16:46:42.167Z,99961.31
2022-12-22T16:49:24.541Z,99962.84
2022-12-22T16:52:00.717Z,99965.59
2022-12-22T16:54:34.359Z,99956.06
2022-12-22T16:57:09.326Z,99963.28
2022-12-22T16:59:44.462Z,99957.03
2022-12-22T17:02:21.177Z,99956.16
2022-12-22T17:04:56.592Z,99953.84
2022-12-22T17:07:33.523Z,99955.84
2022-12-22T17:10:07.634Z,99956.03
2022-12-22T17:12:41.076Z,99951.75
2022-12-22T17:15:17.562Z,99949.25
2022-12-22T17:17:50.881Z,99951.94
2022-12-22T17:20:27.322Z,99955.06
2022-12-22T17:23:02.527Z,99949.78
2022-12-22T17:25:36.043Z,99957.66
2022-12-22T17:28:11.286Z,99952.38
2022-12-22T17:30:46.149Z,99957.66
2022-12-22T17:33:19.727Z,99953.44
2022-12-22T17:35:53.809Z,99946.00
2022-12-22T17:38:29.044Z,99936.91
2022-12-22T17:41:03.229Z,99946.25
2022-12-22T17:43:36.730Z,99944.75
2022-12-22T17:46:15.423Z,99936.09
2022-12-22T17:48:49.434Z,99934.84
2022-12-22T17:51:24.448Z,99937.16
2022-12-22T17:53:58.701Z,99936.28
2022-12-22T17:56:32.499Z,99939.47
2022-12-22T17:59:05.909Z,99938.50
2022-12-22T18:01:41.019Z,99932.78
2022-12-22T18:04:14.489Z,99931.00
2022-12-22T18:06:48.145Z,99934.66
2022-12-22T18:09:24.424Z,99932.78
2022-12-22T18:11:57.999Z,99935.56
2022-12-22T18:14:31.592Z,99928.88
2022-12-22T18:17:06.541Z,99926.00
2022-12-22T18:19:39.953Z,99928.38
2022-12-22T18:22:16.351Z,99927.13
2022-12-22T18:24:50.294Z,99920.06
2022-12-22T18:27:24.085Z,99922.38
2022-12-22T18:29:57.572Z,99916.06
2022-12-22T18:32:32.726Z,99920.13
2022-12-22T18:35:06.571Z,99926.88
2022-12-22T18:37:40.530Z,99920.72
2022-12-22T18:40:28.485Z,99912.16
2022-12-22T18:43:03.215Z,99914.47
2022-12-22T18:45:36.456Z,99911.81
2022-12-22T18:48:11.369Z,99922.25
2022-12-22T18:50:44.732Z,99910.81
2022-12-22T18:53:22.945Z,99916.78
2022-12-22T18:55:56.657Z,99914.03
2022-12-22T18:58:30.242Z,99914.91
2022-12-22T19:01:04.404Z,99907.97
2022-12-22T19:03:39.419Z,99905.66
2022-12-22T19:06:12.855Z,99909.13
2022-12-22T19:08:48.279Z,99912.78
2022-12-22T19:11:24.830Z,99897.44
2022-12-22T19:13:58.557Z,99903.78
2022-12-22T19:16:32.071Z,99901.19
2022-12-22T19:19:07.075Z,99908.06
2022-12-22T19:21:40.452Z,99911.84
2022-12-22T19:24:14.438Z,99905.88
2022-12-22T19:26:47.911Z,99903.38
2022-12-22T19:29:21.449Z,99896.50
2022-12-22T19:31:54.845Z,99899.28
2022-12-22T19:34:29.883Z,99906.16
2022-12-22T19:37:03.334Z,99898.56
2022-12-22T19:39:37.022Z,99898.66
2022-12-22T19:42:14.607Z,99896.25
2022-12-22T19:44:48.579Z,99893.84
2022-12-22T19:47:24.328Z,99886.66
2022-12-22T19:49:59.237Z,99892.44
2022-12-22T19:52:32.924Z,99889.06
2022-12-22T19:55:06.797Z,99886.56
2022-12-22T19:57:42.209Z,99889.16
2022-12-22T20:00:17.150Z,99887.38
2022-12-22T20:02:51.793Z,99885.56
2022-12-22T20:05:33.241Z,99873.78
2022-12-22T20:08:06.681Z,99872.19
2022-12-22T20:10:40.700Z,99869.84
2022-12-22T20:13:15.859Z,99863.69
2022-12-22T20:15:49.958Z,99861.75
2022-12-22T20:18:24.199Z,99864.16
2022-12-22T20:21:02.242Z,99856.75
2022-12-22T20:23:37.223Z,99867.19
2022-12-22T20:26:14.877Z,99871.38
2022-12-22T20:28:49.583Z,99873.88
2022-12-22T20:31:24.486Z,99871.19
2022-12-22T20:33:57.934Z,99871.13
2022-12-22T20:36:32.876Z,99873.78
2022-12-22T20:39:11.875Z,99879.94
2022-12-22T20:41:52.317Z,99881.72
2022-12-22T20:44:28.140Z,99877.34
2022-12-22T20:47:02.046Z,99886.03
2022-12-22T20:49:35.552Z,99883.44
2022-12-22T20:52:14.747Z,99882.44
2022-12-22T20:54:48.100Z,99886.03
2022-12-22T20:57:22.567Z,99881.91
2022-12-22T20:59:56.941Z,99888.78
2022-12-22T21:02:30.695Z,99878.34
2022-12-22T21:05:04.801Z,99875.94
2022-12-22T21:07:41.471Z,99874.31
2022-12-22T21:10:16.850Z,99882.97
2022-12-22T21:12:51.088Z,99878.53
2022-12-22T21:15:25.709Z,99876.91
2022-12-22T21:17:59.241Z,99875.94
2022-12-22T21:20:32.975Z,99875.84
2022-12-22T21:23:07.894Z,99868.88
2022-12-22T21:25:46.547Z,99864.59
2022-12-22T21:28:23.017Z,99858.53
2022-12-22T21:30:56.445Z,99864.59
2022-12-22T21:33:30.039Z,99855.75
2022-12-22T21:36:03.552Z,99861.84
2022-12-22T21:38:38.434Z,99855.59
2022-12-22T21:41:11.809Z,99858.19
2022-12-22T21:43:45.445Z,99864.16
2022-12-22T21:46:19.017Z,99856.31
2022-12-22T21:48:52.699Z,99847.72
2022-12-22T21:51:26.017Z,99857.09
2022-12-22T21:54:00.930Z,99856.13
2022-12-22T21:56:34.308Z,99855.22
2022-12-22T21:59:07.763Z,99855.09
2022-12-22T22:01:41.588Z,99857.69
2022-12-22T22:04:15.665Z,99860.28
2022-12-22T22:06:49.040Z,99857.59
2022-12-22T22:09:23.978Z,99860.81
2022-12-22T22:12:14.936Z,99856.38
2022-12-22T22:14:48.385Z,99857.25
2022-12-22T22:17:21.872Z,99852.09
2022-12-22T22:19:55.441Z,99852.00
2022-12-22T22:22:28.908Z,99849.31
2022-12-22T22:25:04.084Z,99851.81
2022-12-22T22:27:39.662Z,99840.56
2022-12-22T22:30:16.377Z,99830.13
2022-12-22T22:32:50.100Z,99832.81
2022-12-22T22:35:26.513Z,99820.75
2022-12-22T22:38:00.041Z,99816.66
2022-12-22T22:40:35.387Z,99812.13
2022-12-22T22:43:08.741Z,99798.91
2022-12-22T22:45:42.808Z,99805.22
2022-12-22T22:48:18.752Z,99807.44
2022-12-22T22:50:52.383Z,99804.41
2022-12-22T22:53:25.931Z,99808.13
2022-12-22T22:56:03.362Z,99804.38
2022-12-22T22:58:36.875Z,99798.84
2022-12-22T23:01:11.384Z,99800.31
2022-12-22T23:03:44.842Z,99793.28
2022-12-22T23:06:18.425Z,99808.69
2022-12-22T23:08:51.860Z,99806.72
2022-12-22T23:11:26.678Z,99810.81
2022-12-22T23:14:00.001Z,99812.44
2022-12-22T23:16:38.000Z,99812.34
2022-12-22T23:19:12.089Z,99800.22
2022-12-22T23:21:45.876Z,99801.81
2022-12-22T23:24:19.278Z,99790.56
2022-12-22T23:26:54.189Z,99788.78
2022-12-22T23:29:27.586Z,99787.09
2022-12-22T23:32:01.271Z,99782.81
2022-12-22T23:34:34.669Z,99778.34
2022-12-22T23:37:11.003Z,99773.28
2022-12-22T23:39:48.635Z,99776.69
2022-12-22T23:42:23.459Z,99779.25
2022-12-22T23:44:56.826Z,99767.31
2022-12-22T23:47:30.473Z,99771.88
2022-12-22T23:50:03.864Z,99775.88
2022-12-22T23:52:37.741Z,99773.06
2022-12-22T23:55:11.170Z,99772.97
2022-12-22T23:57:46.407Z,99773.88
